Terminal Aerodrome Forecast
Issued by NWS Blacksburg, VA

Home | Current Version | Previous Version | Text Only | Print | Product List | Glossary On
Versions: 1 2 3 4 5 6 7 8 9 10 11 12 13 14 15 16 17 18 19 20 21
000
FTUS41 KRNK 172355
TAFLYH
TAF
KLYH 172355Z 1800/1824 VRB03KT P6SM VCSH BKN060
     FM180200 19004KT P6SM BKN060
     FM180600 00000KT 5SM BR BKN010 BKN040
      TEMPO 1808/1812 1SM BR
     FM181300 VRB03KT P6SM SCT020 SCT250
     FM181600 23005KT P6SM VCTS BKN040CB BKN250
     FM182200 26005KT P6SM BKN070=

USA.gov is the U.S. government's official web portal to all federal, state and local government web resources and services.